createdAt,value
2022-10-17T00:00:41.488Z,8.60
2022-10-17T00:03:08.568Z,9.10
2022-10-17T00:05:35.576Z,8.48
2022-10-17T00:08:02.612Z,8.35
2022-10-17T00:10:29.632Z,9.20
2022-10-17T00:12:57.338Z,9.02
2022-10-17T00:15:24.378Z,9.13
2022-10-17T00:17:51.405Z,10.23
2022-10-17T00:20:18.479Z,10.32
2022-10-17T00:22:45.536Z,10.07
2022-10-17T00:25:12.674Z,11.40
2022-10-17T00:27:40.139Z,11.50
2022-10-17T00:30:07.684Z,10.52
2022-10-17T00:32:34.732Z,11.57
2022-10-17T00:35:01.794Z,11.35
2022-10-17T00:37:28.792Z,10.55
2022-10-17T00:39:55.837Z,10.98
2022-10-17T00:42:25.122Z,11.73
2022-10-17T00:44:58.374Z,12.27
2022-10-17T00:47:25.400Z,11.63
2022-10-17T00:49:52.474Z,11.65
2022-10-17T00:52:20.787Z,11.48
2022-10-17T00:54:49.568Z,11.27
2022-10-17T00:57:16.742Z,10.43
2022-10-17T00:59:43.927Z,12.30
2022-10-17T01:02:13.303Z,11.10
2022-10-17T01:04:41.056Z,10.43
2022-10-17T01:07:08.171Z,10.75
2022-10-17T01:09:35.628Z,10.68
2022-10-17T01:12:02.645Z,10.95
2022-10-17T01:14:31.023Z,10.80
2022-10-17T01:17:03.516Z,10.50
2022-10-17T01:19:49.421Z,10.15
2022-10-17T01:22:18.865Z,10.48
2022-10-17T01:24:49.877Z,10.27
2022-10-17T01:27:28.374Z,10.27
2022-10-17T01:29:58.492Z,9.55
2022-10-17T01:32:33.032Z,10.25
2022-10-17T01:35:20.954Z,10.75
2022-10-17T01:40:28.343Z,10.10
2022-10-17T01:43:01.584Z,10.73
2022-10-17T01:45:28.586Z,10.30
2022-10-17T01:47:55.689Z,10.27
2022-10-17T01:50:33.068Z,11.15
2022-10-17T01:53:01.819Z,10.73
2022-10-17T01:55:30.108Z,10.40
2022-10-17T01:57:58.472Z,10.20
2022-10-17T02:00:26.222Z,10.73
2022-10-17T02:02:54.175Z,10.55
2022-10-17T02:05:22.473Z,10.05
2022-10-17T02:07:49.474Z,9.93
2022-10-17T02:10:18.666Z,10.88
2022-10-17T02:13:03.096Z,10.23
2022-10-17T02:15:47.755Z,9.95
2022-10-17T02:18:14.758Z,9.02
2022-10-17T02:20:45.240Z,9.07
2022-10-17T02:25:42.076Z,9.48
2022-10-17T02:28:12.864Z,9.73
2022-10-17T02:30:45.128Z,9.35
2022-10-17T02:33:13.376Z,9.00
2022-10-17T02:35:42.515Z,9.05
2022-10-17T02:38:09.576Z,9.55
2022-10-17T02:40:36.589Z,9.65
2022-10-17T02:43:03.604Z,10.25
2022-10-17T02:45:35.678Z,9.25
2022-10-17T02:48:06.743Z,9.15
2022-10-17T02:50:43.682Z,9.07
2022-10-17T02:53:12.448Z,9.35
2022-10-17T02:55:41.000Z,9.85
2022-10-17T02:58:08.859Z,8.65
2022-10-17T03:00:35.888Z,8.63
2022-10-17T03:03:02.895Z,9.07
2022-10-17T03:05:30.032Z,8.77
2022-10-17T03:07:57.190Z,8.95
2022-10-17T03:10:24.198Z,8.35
2022-10-17T03:12:51.218Z,8.43
2022-10-17T03:15:18.225Z,8.45
2022-10-17T03:20:17.282Z,8.50
2022-10-17T03:22:44.295Z,8.65
2022-10-17T03:25:11.279Z,8.07
2022-10-17T03:27:38.335Z,7.80
2022-10-17T03:30:05.624Z,7.97
2022-10-17T03:32:33.969Z,8.15
2022-10-17T03:35:00.991Z,8.82
2022-10-17T03:37:28.304Z,8.88
2022-10-17T03:39:55.736Z,8.48
2022-10-17T03:42:22.757Z,7.78
2022-10-17T03:44:49.757Z,8.50
2022-10-17T03:47:16.755Z,8.02
2022-10-17T03:49:43.819Z,7.55
2022-10-17T03:52:13.880Z,8.43
2022-10-17T03:54:41.019Z,8.40
2022-10-17T03:57:08.013Z,8.40
2022-10-17T03:59:35.065Z,8.32
2022-10-17T04:02:02.080Z,7.95
2022-10-17T04:04:29.072Z,8.77
2022-10-17T04:06:56.092Z,8.50
2022-10-17T04:09:23.102Z,8.75
2022-10-17T04:11:50.113Z,8.65
2022-10-17T04:14:17.124Z,8.82
2022-10-17T04:16:44.131Z,8.80
2022-10-17T04:19:12.504Z,8.50
2022-10-17T04:21:39.587Z,9.00
2022-10-17T04:24:06.646Z,11.70
2022-10-17T04:26:33.749Z,9.40
2022-10-17T04:29:00.765Z,9.60
2022-10-17T04:31:27.780Z,8.15
2022-10-17T04:33:54.850Z,8.63
2022-10-17T04:36:23.241Z,8.32
2022-10-17T04:38:50.277Z,8.38
2022-10-17T04:41:18.051Z,8.18
2022-10-17T04:43:48.489Z,8.35
2022-10-17T04:46:18.132Z,8.40
2022-10-17T04:48:45.148Z,8.43
2022-10-17T04:51:13.170Z,8.18
2022-10-17T04:53:40.389Z,8.15
2022-10-17T04:56:10.924Z,8.27
2022-10-17T05:01:05.959Z,8.90
2022-10-17T05:03:33.198Z,8.18
2022-10-17T05:06:00.237Z,7.80
2022-10-17T05:08:27.245Z,8.27
2022-10-17T05:10:54.312Z,7.72
2022-10-17T05:13:21.371Z,7.32
2022-10-17T05:15:48.406Z,7.13
2022-10-17T05:18:15.396Z,7.57
2022-10-17T05:20:42.433Z,6.95
2022-10-17T05:23:09.483Z,6.88
2022-10-17T05:25:36.520Z,7.18
2022-10-17T05:28:03.543Z,7.05
2022-10-17T05:30:35.155Z,6.78
2022-10-17T05:33:04.632Z,6.40
2022-10-17T05:35:31.669Z,6.88
2022-10-17T05:37:59.976Z,6.57
2022-10-17T05:40:26.991Z,8.02
2022-10-17T05:42:54.063Z,6.80
2022-10-17T05:45:21.133Z,6.68
2022-10-17T05:47:48.199Z,7.13
2022-10-17T05:50:15.300Z,6.75
2022-10-17T05:52:45.131Z,6.28
2022-10-17T05:55:14.171Z,6.90
2022-10-17T05:57:41.244Z,7.22
2022-10-17T06:00:08.630Z,6.50
2022-10-17T06:02:35.633Z,6.60
2022-10-17T06:05:02.716Z,7.30
2022-10-17T06:07:29.754Z,6.90
2022-10-17T06:09:58.885Z,6.43
2022-10-17T06:12:26.104Z,6.72
2022-10-17T06:14:53.323Z,7.65
2022-10-17T06:17:20.352Z,6.88
2022-10-17T06:19:47.619Z,7.18
2022-10-17T06:22:14.759Z,7.35
2022-10-17T06:24:42.458Z,7.90
2022-10-17T06:27:11.887Z,8.75
2022-10-17T06:29:39.280Z,8.60
2022-10-17T06:32:08.653Z,7.65
2022-10-17T06:34:38.226Z,7.90
2022-10-17T06:37:05.235Z,8.57
2022-10-17T06:39:33.945Z,7.65
2022-10-17T06:42:01.454Z,7.40
2022-10-17T06:44:31.631Z,6.70
2022-10-17T06:46:59.201Z,6.43
2022-10-17T06:49:26.693Z,6.18
2022-10-17T06:51:53.808Z,6.32
2022-10-17T06:54:20.867Z,5.82
2022-10-17T06:56:47.915Z,6.00
2022-10-17T06:59:15.642Z,5.97
2022-10-17T07:01:46.087Z,5.35
2022-10-17T07:04:14.231Z,8.50
2022-10-17T07:06:41.677Z,8.00
2022-10-17T07:09:09.477Z,6.00
2022-10-17T07:11:36.548Z,5.30
2022-10-17T07:14:03.611Z,5.68
2022-10-17T07:16:30.643Z,4.10
2022-10-17T07:18:57.735Z,4.10
2022-10-17T07:21:24.816Z,4.00
2022-10-17T07:23:51.857Z,3.80
2022-10-17T07:26:19.022Z,3.90
2022-10-17T07:28:46.714Z,4.22
2022-10-17T07:31:17.671Z,4.55
2022-10-17T07:36:16.947Z,3.72
2022-10-17T07:38:43.956Z,3.85
2022-10-17T07:41:11.411Z,3.72
2022-10-17T07:43:38.766Z,3.53
2022-10-17T07:46:06.311Z,3.58
2022-10-17T07:48:33.335Z,2.90
2022-10-17T07:51:04.215Z,3.45
2022-10-17T07:53:31.281Z,3.42
2022-10-17T07:55:58.441Z,3.42
2022-10-17T07:58:25.866Z,3.72
2022-10-17T08:00:53.003Z,3.55
2022-10-17T08:03:20.111Z,3.15
2022-10-17T08:05:47.135Z,3.33
2022-10-17T08:08:17.194Z,3.47
2022-10-17T08:10:44.229Z,3.53
2022-10-17T08:13:11.278Z,3.35
2022-10-17T08:15:38.908Z,3.95
2022-10-17T08:18:05.927Z,3.28
2022-10-17T08:20:33.011Z,3.80
2022-10-17T08:23:00.018Z,3.65
2022-10-17T08:25:27.114Z,2.92
2022-10-17T08:27:54.217Z,3.03
2022-10-17T08:30:21.277Z,2.72
2022-10-17T08:32:48.294Z,2.80
2022-10-17T08:35:15.341Z,2.80
2022-10-17T08:37:42.520Z,2.58
2022-10-17T08:40:36.382Z,2.83
2022-10-17T08:43:09.192Z,2.75
2022-10-17T08:45:49.664Z,2.65
2022-10-17T08:48:18.259Z,2.47
2022-10-17T08:51:02.883Z,2.40
2022-10-17T08:53:37.279Z,2.60
2022-10-17T08:56:43.948Z,2.55
2022-10-17T08:59:12.299Z,2.63
2022-10-17T09:01:39.322Z,2.78
2022-10-17T09:04:12.543Z,2.70
2022-10-17T09:06:47.823Z,2.75
2022-10-17T09:09:30.101Z,3.00
2022-10-17T09:12:11.343Z,2.72
2022-10-17T09:14:38.389Z,2.05
2022-10-17T09:17:16.951Z,2.20
2022-10-17T09:19:45.853Z,1.95
2022-10-17T09:22:14.372Z,1.88
2022-10-17T09:24:53.308Z,1.70
2022-10-17T09:27:24.587Z,1.95
2022-10-17T09:29:53.396Z,2.40
2022-10-17T09:32:22.076Z,1.80
2022-10-17T09:34:49.158Z,2.05
2022-10-17T09:37:16.746Z,2.45
2022-10-17T09:39:43.939Z,2.15
2022-10-17T09:42:13.430Z,2.40
2022-10-17T09:44:48.285Z,2.30
2022-10-17T09:47:32.031Z,2.55
2022-10-17T09:49:59.071Z,2.33
2022-10-17T09:52:28.080Z,2.30
2022-10-17T09:54:56.960Z,2.30
2022-10-17T09:57:24.230Z,2.30
2022-10-17T09:59:58.779Z,2.30
2022-10-17T10:02:26.294Z,2.47
2022-10-17T10:05:09.277Z,2.22
2022-10-17T10:07:37.594Z,1.98
2022-10-17T10:10:05.531Z,1.92
2022-10-17T10:12:35.654Z,2.45
2022-10-17T10:15:03.057Z,2.40
2022-10-17T10:17:30.043Z,2.10
2022-10-17T10:19:57.107Z,2.10
2022-10-17T10:22:24.202Z,1.90
2022-10-17T10:25:10.036Z,2.13
2022-10-17T10:27:37.163Z,2.35
2022-10-17T10:30:04.316Z,2.35
2022-10-17T10:32:34.810Z,2.38
2022-10-17T10:35:04.046Z,2.70
2022-10-17T10:37:34.158Z,2.77
2022-10-17T10:40:07.691Z,2.38
2022-10-17T10:42:37.010Z,2.20
2022-10-17T10:45:04.080Z,2.38
2022-10-17T10:47:31.876Z,3.13
2022-10-17T10:50:10.068Z,2.53
2022-10-17T10:52:42.426Z,2.60
2022-10-17T10:55:22.324Z,2.55
2022-10-17T10:57:49.623Z,2.60
2022-10-17T11:00:17.431Z,2.58
2022-10-17T11:02:47.564Z,2.40
2022-10-17T11:08:04.526Z,2.72
2022-10-17T11:13:05.511Z,2.38
2022-10-17T11:15:35.948Z,2.22
2022-10-17T11:18:04.043Z,2.20
2022-10-17T11:20:33.865Z,2.70
2022-10-17T11:23:10.621Z,1.95
2022-10-17T11:25:38.405Z,2.08
2022-10-17T11:28:10.984Z,2.25
2022-10-17T11:33:18.167Z,2.10
2022-10-17T11:35:45.468Z,1.75
2022-10-17T11:38:23.207Z,2.00
2022-10-17T11:40:51.150Z,2.10
2022-10-17T11:43:18.147Z,2.10
2022-10-17T11:45:49.192Z,1.83
2022-10-17T11:48:18.971Z,2.15
2022-10-17T11:54:00.608Z,2.15
2022-10-17T11:56:30.220Z,2.22
2022-10-17T11:59:12.969Z,2.13
2022-10-17T12:01:41.895Z,2.13
2022-10-17T12:04:27.773Z,1.85
2022-10-17T12:07:01.059Z,2.17
2022-10-17T12:09:32.946Z,2.22
2022-10-17T12:12:00.678Z,2.00
2022-10-17T12:14:43.059Z,2.08
2022-10-17T12:17:32.429Z,2.05
2022-10-17T12:20:25.488Z,2.10
2022-10-17T12:22:56.348Z,2.28
2022-10-17T12:25:24.818Z,2.45
2022-10-17T12:27:51.877Z,2.00
2022-10-17T12:30:20.355Z,2.05
2022-10-17T12:33:13.691Z,1.90
2022-10-17T12:35:40.708Z,2.00
2022-10-17T12:38:20.071Z,2.35
2022-10-17T12:40:50.727Z,1.88
2022-10-17T12:43:17.724Z,2.00
2022-10-17T12:45:51.572Z,1.98
2022-10-17T12:48:34.037Z,2.25
2022-10-17T12:54:16.286Z,1.95
2022-10-17T12:56:44.835Z,2.25
2022-10-17T12:59:28.891Z,2.22
2022-10-17T13:01:57.421Z,2.20
2022-10-17T13:04:24.494Z,1.95
2022-10-17T13:06:58.659Z,2.30
2022-10-17T13:09:26.850Z,2.03
2022-10-17T13:11:54.329Z,2.47
2022-10-17T13:14:22.203Z,2.05
2022-10-17T13:16:53.510Z,2.08
2022-10-17T13:19:23.516Z,2.20
2022-10-17T13:22:00.953Z,2.33
2022-10-17T13:26:57.777Z,2.47
2022-10-17T13:29:25.774Z,1.88
2022-10-17T13:31:54.194Z,2.05
2022-10-17T13:34:22.385Z,2.20
2022-10-17T13:36:51.264Z,2.22
2022-10-17T13:39:23.165Z,2.33
2022-10-17T13:41:59.386Z,2.60
2022-10-17T13:44:27.204Z,2.30
2022-10-17T13:46:54.445Z,2.45
2022-10-17T13:49:23.321Z,2.03
2022-10-17T13:51:53.582Z,2.42
2022-10-17T13:54:32.720Z,2.42
2022-10-17T13:56:59.950Z,2.40
2022-10-17T13:59:29.399Z,2.65
2022-10-17T14:01:56.818Z,2.58
2022-10-17T14:04:23.838Z,2.40
2022-10-17T14:06:52.371Z,2.30
2022-10-17T14:09:24.486Z,2.15
2022-10-17T14:11:59.757Z,2.40
2022-10-17T14:14:26.782Z,2.30
2022-10-17T14:16:53.775Z,2.22
2022-10-17T14:19:27.483Z,2.33
2022-10-17T14:22:04.037Z,1.92
2022-10-17T14:24:31.558Z,2.33
2022-10-17T14:26:59.484Z,2.35
2022-10-17T14:29:29.555Z,2.00
2022-10-17T14:34:24.900Z,1.90
2022-10-17T14:36:52.267Z,2.20
2022-10-17T14:39:20.268Z,2.13
2022-10-17T14:41:47.325Z,2.45
2022-10-17T14:44:25.169Z,2.15
2022-10-17T14:46:53.841Z,2.55
2022-10-17T14:49:24.838Z,2.60
2022-10-17T14:52:19.118Z,2.25
2022-10-17T14:54:49.443Z,2.65
2022-10-17T14:57:39.880Z,2.85
2022-10-17T15:00:07.150Z,2.80
2022-10-17T15:02:34.446Z,2.60
2022-10-17T15:05:01.572Z,3.90
2022-10-17T15:07:29.389Z,2.58
2022-10-17T15:09:57.055Z,2.50
2022-10-17T15:12:25.205Z,2.60
2022-10-17T15:14:52.654Z,2.55
2022-10-17T15:17:21.292Z,2.78
2022-10-17T15:19:48.786Z,3.78
2022-10-17T15:22:16.183Z,2.60
2022-10-17T15:24:43.372Z,2.95
2022-10-17T15:27:20.482Z,2.65
2022-10-17T15:29:47.667Z,2.72
2022-10-17T15:32:14.722Z,2.90
2022-10-17T15:34:41.746Z,3.40
2022-10-17T15:37:15.232Z,3.03
2022-10-17T15:39:42.339Z,2.78
2022-10-17T15:42:10.544Z,2.97
2022-10-17T15:44:37.682Z,2.90
2022-10-17T15:47:04.698Z,2.67
2022-10-17T15:49:31.732Z,3.00
2022-10-17T15:51:58.806Z,2.70
2022-10-17T15:54:26.222Z,2.90
2022-10-17T15:56:53.953Z,2.65
2022-10-17T15:59:22.121Z,2.70
2022-10-17T16:01:49.160Z,2.97
2022-10-17T16:04:16.273Z,3.28
2022-10-17T16:06:43.621Z,3.90
2022-10-17T16:09:10.683Z,2.78
2022-10-17T16:11:41.717Z,2.92
2022-10-17T16:14:10.959Z,3.17
2022-10-17T16:16:37.971Z,2.90
2022-10-17T16:19:05.014Z,2.90
2022-10-17T16:21:33.095Z,2.85
2022-10-17T16:24:00.601Z,3.15
2022-10-17T16:26:27.990Z,3.17
2022-10-17T16:28:55.960Z,3.17
2022-10-17T16:31:23.972Z,2.95
2022-10-17T16:33:51.620Z,3.85
2022-10-17T16:36:18.782Z,3.58
2022-10-17T16:38:45.991Z,4.30
2022-10-17T16:41:23.195Z,3.67
2022-10-17T16:43:50.552Z,4.60
2022-10-17T16:46:17.604Z,3.67
2022-10-17T16:48:44.933Z,4.50
2022-10-17T16:51:12.325Z,4.43
2022-10-17T16:53:43.408Z,3.65
2022-10-17T16:56:14.384Z,4.15
2022-10-17T16:58:41.752Z,5.97
2022-10-17T17:01:10.187Z,3.67
2022-10-17T17:03:37.902Z,3.95
2022-10-17T17:06:06.538Z,3.42
2022-10-17T17:08:34.027Z,3.65
2022-10-17T17:11:01.067Z,3.97
2022-10-17T17:13:29.196Z,3.75
2022-10-17T17:16:03.187Z,3.83
2022-10-17T17:18:30.350Z,10.15
2022-10-17T17:21:01.151Z,6.32
2022-10-17T17:23:28.319Z,5.65
2022-10-17T17:25:59.159Z,4.60
2022-10-17T17:28:26.402Z,4.05
2022-10-17T17:30:53.678Z,4.65
2022-10-17T17:33:20.923Z,4.15
2022-10-17T17:35:48.058Z,4.25
2022-10-17T17:38:15.094Z,4.80
2022-10-17T17:40:50.744Z,6.90
2022-10-17T17:43:18.399Z,5.10
2022-10-17T17:45:45.417Z,10.38
2022-10-17T17:48:13.679Z,7.75
2022-10-17T17:50:40.972Z,5.10
2022-10-17T17:53:08.283Z,5.32
2022-10-17T17:55:35.572Z,6.50
2022-10-17T17:58:02.801Z,6.43
2022-10-17T18:00:29.878Z,6.78
2022-10-17T18:02:57.109Z,6.20
2022-10-17T18:05:24.204Z,5.85
2022-10-17T18:07:51.218Z,7.05
2022-10-17T18:10:18.243Z,6.95
2022-10-17T18:12:45.309Z,6.18
2022-10-17T18:15:12.357Z,34.47
2022-10-17T18:17:39.473Z,8.02
2022-10-17T18:20:06.902Z,5.90
2022-10-17T18:22:35.550Z,6.25
2022-10-17T18:25:02.874Z,5.93
2022-10-17T18:27:29.905Z,6.90
2022-10-17T18:29:56.913Z,6.88
2022-10-17T18:32:23.944Z,5.80
2022-10-17T18:34:50.992Z,6.55
2022-10-17T18:37:18.045Z,7.22
2022-10-17T18:39:45.316Z,7.32
2022-10-17T18:42:12.370Z,7.60
2022-10-17T18:44:39.492Z,7.00
2022-10-17T18:47:06.515Z,7.30
2022-10-17T18:49:33.674Z,6.40
2022-10-17T18:52:00.713Z,7.10
2022-10-17T18:54:27.818Z,6.53
2022-10-17T18:56:54.952Z,6.95
2022-10-17T18:59:22.029Z,7.25
2022-10-17T19:01:49.109Z,6.68
2022-10-17T19:04:16.533Z,6.53
2022-10-17T19:06:43.675Z,6.43
2022-10-17T19:09:11.394Z,6.22
2022-10-17T19:11:38.619Z,5.80
2022-10-17T19:14:08.115Z,5.97
2022-10-17T19:16:35.835Z,6.70
2022-10-17T19:19:06.922Z,7.05
2022-10-17T19:21:34.260Z,13.55
2022-10-17T19:24:02.161Z,7.95
2022-10-17T19:26:29.880Z,7.75
2022-10-17T19:28:57.044Z,7.72
2022-10-17T19:31:27.162Z,8.65
2022-10-17T19:36:27.532Z,8.15
2022-10-17T19:38:58.041Z,7.43
2022-10-17T19:41:25.250Z,7.25
2022-10-17T19:43:52.368Z,7.80
2022-10-17T19:46:20.955Z,7.63
2022-10-17T19:48:48.614Z,9.30
2022-10-17T19:51:16.100Z,8.98
2022-10-17T19:53:43.282Z,7.65
2022-10-17T19:56:10.669Z,8.93
2022-10-17T19:58:44.483Z,16.13
2022-10-17T20:01:12.067Z,12.77
2022-10-17T20:03:39.116Z,12.45
2022-10-17T20:06:06.282Z,10.30
2022-10-17T20:08:33.346Z,10.43
2022-10-17T20:11:14.082Z,11.02
2022-10-17T20:13:41.314Z,11.82
2022-10-17T20:16:08.846Z,11.85
2022-10-17T20:18:35.984Z,12.30
2022-10-17T20:21:04.543Z,10.77
2022-10-17T20:23:31.576Z,11.40
2022-10-17T20:26:13.385Z,11.07
2022-10-17T20:28:47.061Z,11.18
2022-10-17T20:31:14.333Z,10.73
2022-10-17T20:33:41.687Z,11.07
2022-10-17T20:36:09.858Z,11.60
2022-10-17T20:38:36.983Z,9.55
2022-10-17T20:41:08.083Z,9.90
2022-10-17T20:43:35.229Z,8.70
2022-10-17T20:46:15.463Z,9.43
2022-10-17T20:48:57.981Z,10.07
2022-10-17T20:51:26.433Z,11.55
2022-10-17T20:53:53.773Z,10.50
2022-10-17T20:56:25.095Z,11.45
2022-10-17T20:58:52.956Z,10.75
2022-10-17T21:01:20.230Z,10.50
2022-10-17T21:03:47.340Z,10.40
2022-10-17T21:06:14.629Z,9.45
2022-10-17T21:08:41.763Z,10.30
2022-10-17T21:11:09.547Z,9.75
2022-10-17T21:13:36.668Z,9.88
2022-10-17T21:16:11.043Z,9.55
2022-10-17T21:18:38.436Z,10.35
2022-10-17T21:21:09.464Z,10.20
2022-10-17T21:23:36.577Z,9.38
2022-10-17T21:26:04.071Z,9.23
2022-10-17T21:28:31.186Z,9.05
2022-10-17T21:31:07.344Z,9.07
2022-10-17T21:33:34.362Z,8.98
2022-10-17T21:36:01.551Z,9.60
2022-10-17T21:38:28.591Z,9.25
2022-10-17T21:40:57.992Z,9.00
2022-10-17T21:43:25.092Z,10.45
2022-10-17T21:45:52.107Z,10.85
2022-10-17T21:48:19.290Z,10.75
2022-10-17T21:50:46.404Z,10.65
2022-10-17T21:53:13.547Z,10.07
2022-10-17T21:55:40.695Z,9.48
2022-10-17T21:58:07.723Z,9.98
2022-10-17T22:00:34.747Z,10.80
2022-10-17T22:03:01.785Z,10.55
2022-10-17T22:05:30.191Z,10.95
2022-10-17T22:07:57.220Z,9.93
2022-10-17T22:10:24.260Z,10.25
2022-10-17T22:12:51.288Z,7.97
2022-10-17T22:15:18.320Z,7.80
2022-10-17T22:17:45.365Z,7.32
2022-10-17T22:20:12.372Z,6.70
2022-10-17T22:22:39.379Z,7.30
2022-10-17T22:25:06.664Z,7.18
2022-10-17T22:27:33.782Z,6.40
2022-10-17T22:30:00.801Z,6.95
2022-10-17T22:32:27.906Z,6.32
2022-10-17T22:34:54.931Z,7.22
2022-10-17T22:37:22.115Z,6.40
2022-10-17T22:39:49.291Z,6.72
2022-10-17T22:42:16.333Z,6.75
2022-10-17T22:44:44.225Z,6.05
2022-10-17T22:47:11.285Z,6.03
2022-10-17T22:49:38.287Z,6.65
2022-10-17T22:52:05.413Z,6.70
2022-10-17T22:54:32.433Z,7.45
2022-10-17T22:56:59.461Z,6.85
2022-10-17T22:59:26.469Z,7.53
2022-10-17T23:01:53.598Z,7.63
2022-10-17T23:04:20.640Z,7.15
2022-10-17T23:06:47.662Z,6.35
2022-10-17T23:09:14.708Z,6.93
2022-10-17T23:11:41.751Z,7.35
2022-10-17T23:14:08.763Z,7.05
2022-10-17T23:16:35.790Z,6.80
2022-10-17T23:19:02.845Z,6.18
2022-10-17T23:21:29.881Z,6.40
2022-10-17T23:23:56.910Z,6.15
2022-10-17T23:26:23.943Z,6.57
2022-10-17T23:28:53.834Z,6.03
2022-10-17T23:31:21.303Z,6.00
2022-10-17T23:33:48.733Z,6.07
2022-10-17T23:36:16.201Z,6.00
2022-10-17T23:38:43.548Z,6.30
2022-10-17T23:41:10.695Z,5.93
2022-10-17T23:43:37.743Z,6.07
2022-10-17T23:46:05.039Z,6.70
2022-10-17T23:48:32.096Z,6.10
2022-10-17T23:50:59.110Z,6.30
2022-10-17T23:53:26.120Z,6.82
2022-10-17T23:55:53.194Z,7.53
2022-10-17T23:58:20.247Z,7.68
